sensor_id;sensor_type;location;lat;lon;timestamp;P1;P2;P0
53698;PMS7003;68408;53.952;27.612;2023-04-06T00:01:05;3.1;2.3;1.7
53698;PMS7003;68408;53.952;27.612;2023-04-06T00:06:17;4.1;3.3;2.8
53698;PMS7003;68408;53.952;27.612;2023-04-06T00:11:09;4.3;3.1;2.5
53698;PMS7003;68408;53.952;27.612;2023-04-06T00:15:53;4.8;3.9;3.2
53698;PMS7003;68408;53.952;27.612;2023-04-06T00:20:59;5.5;3.8;2.9
53698;PMS7003;68408;53.952;27.612;2023-04-06T00:26:35;5.8;4.1;2.8
53698;PMS7003;68408;53.952;27.612;2023-04-06T00:31:27;5.2;3.7;2.8
53698;PMS7003;68408;53.952;27.612;2023-04-06T00:35:59;6.1;4;2.9
53698;PMS7003;68408;53.952;27.612;2023-04-06T00:41:25;4.8;4.1;3.1
53698;PMS7003;68408;53.952;27.612;2023-04-06T00:45:59;4.4;3.5;2.7
53698;PMS7003;68408;53.952;27.612;2023-04-06T00:51:35;5.3;3;2.4
53698;PMS7003;68408;53.952;27.612;2023-04-06T00:56:27;5.3;3.6;2.7
53698;PMS7003;68408;53.952;27.612;2023-04-06T01:00:53;4.7;3.8;3
53698;PMS7003;68408;53.952;27.612;2023-04-06T01:06:27;6.8;5.4;3.9
53698;PMS7003;68408;53.952;27.612;2023-04-06T01:10:59;6.9;5.3;3.8
53698;PMS7003;68408;53.952;27.612;2023-04-06T01:16:33;8;4.7;3.4
53698;PMS7003;68408;53.952;27.612;2023-04-06T01:21:33;7.6;5.6;4.4
53698;PMS7003;68408;53.952;27.612;2023-04-06T01:25:59;7.9;5.7;4.9
53698;PMS7003;68408;53.952;27.612;2023-04-06T01:31:27;8.6;6;4.5
53698;PMS7003;68408;53.952;27.612;2023-04-06T01:35:53;8.7;6.4;4.7
53698;PMS7003;68408;53.952;27.612;2023-04-06T01:41:33;6.7;5.2;3.8
53698;PMS7003;68408;53.952;27.612;2023-04-06T01:46:27;8.5;5.7;4.7
53698;PMS7003;68408;53.952;27.612;2023-04-06T01:50:59;8.3;6.1;4.4
53698;PMS7003;68408;53.952;27.612;2023-04-06T01:56:27;8.6;6.1;4.5
53698;PMS7003;68408;53.952;27.612;2023-04-06T02:00:59;9.7;6.8;5.1
53698;PMS7003;68408;53.952;27.612;2023-04-06T02:06:19;10.7;8.7;5.9
53698;PMS7003;68408;53.952;27.612;2023-04-06T02:11:27;8.7;6.7;4.8
53698;PMS7003;68408;53.952;27.612;2023-04-06T02:15:53;10.4;7.4;5.9
53698;PMS7003;68408;53.952;27.612;2023-04-06T02:21:27;10;7.9;5.8
53698;PMS7003;68408;53.952;27.612;2023-04-06T02:25:53;11.1;8.7;6.6
53698;PMS7003;68408;53.952;27.612;2023-04-06T02:31:33;11.3;8.2;6.1
53698;PMS7003;68408;53.952;27.612;2023-04-06T02:36:27;9.8;7.5;5.9
53698;PMS7003;68408;53.952;27.612;2023-04-06T02:40:53;12.8;9.5;7
53698;PMS7003;68408;53.952;27.612;2023-04-06T02:46:27;10.9;8.1;5.8
53698;PMS7003;68408;53.952;27.612;2023-04-06T02:51:15;13.8;9.4;6.8
53698;PMS7003;68408;53.952;27.612;2023-04-06T02:56:35;10.3;8.3;6.2
53698;PMS7003;68408;53.952;27.612;2023-04-06T03:01:27;12.3;9;6.8
53698;PMS7003;68408;53.952;27.612;2023-04-06T03:05:53;12;9.2;6.9
53698;PMS7003;68408;53.952;27.612;2023-04-06T03:11:27;12.4;10.1;8
53698;PMS7003;68408;53.952;27.612;2023-04-06T03:16:15;13.9;10.6;7.5
53698;PMS7003;68408;53.952;27.612;2023-04-06T03:21:35;13.6;10.3;7.4
53698;PMS7003;68408;53.952;27.612;2023-04-06T03:26:00;11.7;9.2;7
53698;PMS7003;68408;53.952;27.612;2023-04-06T03:30:53;11.3;9.4;7.5
53698;PMS7003;68408;53.952;27.612;2023-04-06T03:36:27;10.2;7.7;5.7
53698;PMS7003;68408;53.952;27.612;2023-04-06T03:41:09;14.2;11.1;7.9
53698;PMS7003;68408;53.952;27.612;2023-04-06T03:46:35;18.3;12.1;8.3
53698;PMS7003;68408;53.952;27.612;2023-04-06T03:50:53;13.3;10.7;7.9
53698;PMS7003;68408;53.952;27.612;2023-04-06T03:55:59;13.6;10.9;8.4
53698;PMS7003;68408;53.952;27.612;2023-04-06T04:01:25;12.3;8.8;6.6
53698;PMS7003;68408;53.952;27.612;2023-04-06T04:05:53;12.9;9.5;6.7
53698;PMS7003;68408;53.952;27.612;2023-04-06T04:11:35;12.7;10.1;7.8
53698;PMS7003;68408;53.952;27.612;2023-04-06T04:16:27;18.7;13.1;9.4
53698;PMS7003;68408;53.952;27.612;2023-04-06T04:20:59;16.1;12.9;9.4
53698;PMS7003;68408;53.952;27.612;2023-04-06T04:26:27;16;12.9;9.7
53698;PMS7003;68408;53.952;27.612;2023-04-06T04:31:09;17.7;13.3;9.1
53698;PMS7003;68408;53.952;27.612;2023-04-06T04:36:33;15.6;12.3;9
53698;PMS7003;68408;53.952;27.612;2023-04-06T04:41:15;13.4;11.2;8.5
53698;PMS7003;68408;53.952;27.612;2023-04-06T04:45:53;16.9;13.3;10.1
53698;PMS7003;68408;53.952;27.612;2023-04-06T04:51:25;14.2;11.7;8.6
53698;PMS7003;68408;53.952;27.612;2023-04-06T04:55:53;16.1;12.4;9
53698;PMS7003;68408;53.952;27.612;2023-04-06T05:01:33;14.9;12.2;9.6
53698;PMS7003;68408;53.952;27.612;2023-04-06T05:05:53;15.2;12.7;9.3
53698;PMS7003;68408;53.952;27.612;2023-04-06T05:10:53;16.7;13.4;9.9
53698;PMS7003;68408;53.952;27.612;2023-04-06T05:16:27;14.9;12.7;9.5
53698;PMS7003;68408;53.952;27.612;2023-04-06T05:20:53;15.6;12.2;8.7
53698;PMS7003;68408;53.952;27.612;2023-04-06T05:26:35;16;13;9.9
53698;PMS7003;68408;53.952;27.612;2023-04-06T05:31:21;18.1;14.4;10.6
53698;PMS7003;68408;53.952;27.612;2023-04-06T05:35:53;18.7;15;11.8
53698;PMS7003;68408;53.952;27.612;2023-04-06T05:41:27;16.4;14.5;10.9
53698;PMS7003;68408;53.952;27.612;2023-04-06T05:46:09;18.6;15.9;11.9
53698;PMS7003;68408;53.952;27.612;2023-04-06T05:51:33;17.4;14.4;10.9
53698;PMS7003;68408;53.952;27.612;2023-04-06T05:56:15;17.8;14.1;10.8
53698;PMS7003;68408;53.952;27.612;2023-04-06T06:00:56;18.4;15.6;11.6
53698;PMS7003;68408;53.952;27.612;2023-04-06T06:06:25;18.9;15.3;11
53698;PMS7003;68408;53.952;27.612;2023-04-06T06:11:15;21.5;17.6;13.4
53698;PMS7003;68408;53.952;27.612;2023-04-06T06:16:33;19.9;16.9;12.2
53698;PMS7003;68408;53.952;27.612;2023-04-06T06:21:15;22.1;17.4;12.3
53698;PMS7003;68408;53.952;27.612;2023-04-06T06:26:17;21.5;16.9;11.9
53698;PMS7003;68408;53.952;27.612;2023-04-06T06:31:25;17.2;14.7;11.4
53698;PMS7003;68408;53.952;27.612;2023-04-06T06:36:15;17.2;14.1;10.9
53698;PMS7003;68408;53.952;27.612;2023-04-06T06:41:31;20.3;16.7;12.4
53698;PMS7003;68408;53.952;27.612;2023-04-06T06:45:53;19.5;16.9;12.5
53698;PMS7003;68408;53.952;27.612;2023-04-06T06:50:54;18.4;15.3;11.5
53698;PMS7003;68408;53.952;27.612;2023-04-06T06:56:25;18.6;15.6;11.7
53698;PMS7003;68408;53.952;27.612;2023-04-06T07:01:15;19.6;15.2;11.1
53698;PMS7003;68408;53.952;27.612;2023-04-06T07:06:34;20.5;17.9;13.7
53698;PMS7003;68408;53.952;27.612;2023-04-06T07:11:21;19.4;15;11.2
53698;PMS7003;68408;53.952;27.612;2023-04-06T07:15:59;21.3;17.6;13.8
53698;PMS7003;68408;53.952;27.612;2023-04-06T07:21:25;22;17.5;12.8
53698;PMS7003;68408;53.952;27.612;2023-04-06T07:26:15;21.2;17.1;12.7
53698;PMS7003;68408;53.952;27.612;2023-04-06T07:31:33;19.5;16.3;11.6
53698;PMS7003;68408;53.952;27.612;2023-04-06T07:36:15;19.4;15.8;11.7
53698;PMS7003;68408;53.952;27.612;2023-04-06T07:41:05;24.2;18.6;14.1
53698;PMS7003;68408;53.952;27.612;2023-04-06T07:46:33;20.9;17.3;13.4
53698;PMS7003;68408;53.952;27.612;2023-04-06T07:51:00;21.2;17.4;13.2
53698;PMS7003;68408;53.952;27.612;2023-04-06T07:56:33;22.5;19.2;14.1
53698;PMS7003;68408;53.952;27.612;2023-04-06T08:00:59;21.6;19.6;14.9
53698;PMS7003;68408;53.952;27.612;2023-04-06T08:05:59;18.7;15.3;11.1
53698;PMS7003;68408;53.952;27.612;2023-04-06T08:11:25;17.9;14.6;11.1
53698;PMS7003;68408;53.952;27.612;2023-04-06T08:16:13;20;16.9;12.4
53698;PMS7003;68408;53.952;27.612;2023-04-06T08:21:17;24.1;19.9;15.1
53698;PMS7003;68408;53.952;27.612;2023-04-06T08:26:13;20.5;17.5;12.7
53698;PMS7003;68408;53.952;27.612;2023-04-06T08:31:02;19.5;16.2;12.2
53698;PMS7003;68408;53.952;27.612;2023-04-06T08:35:53;20.9;16;12.5
53698;PMS7003;68408;53.952;27.612;2023-04-06T08:40:53;27.4;22.5;16.7
53698;PMS7003;68408;53.952;27.612;2023-04-06T08:46:31;20.1;16.6;12.1
53698;PMS7003;68408;53.952;27.612;2023-04-06T08:51:19;22.6;18.5;12.9
53698;PMS7003;68408;53.952;27.612;2023-04-06T08:56:15;21.7;17.9;12.6
53698;PMS7003;68408;53.952;27.612;2023-04-06T09:01:25;22.4;18.5;13.6
53698;PMS7003;68408;53.952;27.612;2023-04-06T09:05:59;20.6;17.6;13
53698;PMS7003;68408;53.952;27.612;2023-04-06T09:11:41;22.9;20;14.7
53698;PMS7003;68408;53.952;27.612;2023-04-06T09:16:11;20.6;17;13.1
53698;PMS7003;68408;53.952;27.612;2023-04-06T09:21:16;20.1;17.1;13.1
53698;PMS7003;68408;53.952;27.612;2023-04-06T09:26:23;19.6;16.8;12.7
53698;PMS7003;68408;53.952;27.612;2023-04-06T09:30:53;19.6;16.3;12.3
53698;PMS7003;68408;53.952;27.612;2023-04-06T09:36:34;20.2;17;12.8
53698;PMS7003;68408;53.952;27.612;2023-04-06T09:41:20;22.9;18.2;13.5
53698;PMS7003;68408;53.952;27.612;2023-04-06T09:45:54;20.2;16.3;12
53698;PMS7003;68408;53.952;27.612;2023-04-06T09:51:36;20.6;16.9;12.7
53698;PMS7003;68408;53.952;27.612;2023-04-06T09:56:01;20;16.8;12.9
53698;PMS7003;68408;53.952;27.612;2023-04-06T10:01:02;21.8;17.6;12.9
53698;PMS7003;68408;53.952;27.612;2023-04-06T10:06:14;17;15;11.4
53698;PMS7003;68408;53.952;27.612;2023-04-06T10:11:09;21.6;17.8;12.9
53698;PMS7003;68408;53.952;27.612;2023-04-06T10:16:23;20.2;17.5;13.3
53698;PMS7003;68408;53.952;27.612;2023-04-06T10:21:06;15.5;13.6;10.5
53698;PMS7003;68408;53.952;27.612;2023-04-06T10:26:29;17.3;14.5;10.6
53698;PMS7003;68408;53.952;27.612;2023-04-06T10:31:14;19.3;15.2;11.3
53698;PMS7003;68408;53.952;27.612;2023-04-06T10:35:53;18.1;14.4;11.4
53698;PMS7003;68408;53.952;27.612;2023-04-06T10:41:33;17.7;15.6;12.3
53698;PMS7003;68408;53.952;27.612;2023-04-06T10:45:54;17.9;15;11.4
53698;PMS7003;68408;53.952;27.612;2023-04-06T10:51:31;16.9;14.4;11.1
53698;PMS7003;68408;53.952;27.612;2023-04-06T10:56:09;17.8;14.8;11.4
53698;PMS7003;68408;53.952;27.612;2023-04-06T11:01:05;15.5;12;9.4
53698;PMS7003;68408;53.952;27.612;2023-04-06T11:06:22;16.2;13.1;10.7
53698;PMS7003;68408;53.952;27.612;2023-04-06T11:11:03;15.1;12.1;9.7
53698;PMS7003;68408;53.952;27.612;2023-04-06T11:16:30;16.1;12.6;9.6
53698;PMS7003;68408;53.952;27.612;2023-04-06T11:21:07;15.8;13;9.7
53698;PMS7003;68408;53.952;27.612;2023-04-06T11:25:54;14.2;11.9;9
53698;PMS7003;68408;53.952;27.612;2023-04-06T11:31:24;11.4;10.4;8.4
53698;PMS7003;68408;53.952;27.612;2023-04-06T11:35:56;15.6;13.2;10.2
53698;PMS7003;68408;53.952;27.612;2023-04-06T11:41:32;14.5;12.3;9.2
53698;PMS7003;68408;53.952;27.612;2023-04-06T11:46:19;11.2;9.5;7.8
53698;PMS7003;68408;53.952;27.612;2023-04-06T11:50:55;16;12.6;9.5
53698;PMS7003;68408;53.952;27.612;2023-04-06T11:56:26;12.4;10.1;8
53698;PMS7003;68408;53.952;27.612;2023-04-06T12:00:53;9.9;8.2;6.5
53698;PMS7003;68408;53.952;27.612;2023-04-06T12:06:31;14.1;12.1;9.4
53698;PMS7003;68408;53.952;27.612;2023-04-06T12:10:53;13.8;11.3;8.9
53698;PMS7003;68408;53.952;27.612;2023-04-06T12:15:53;12.3;9.4;7.4
53698;PMS7003;68408;53.952;27.612;2023-04-06T12:21:23;12.5;10.7;8.4
53698;PMS7003;68408;53.952;27.612;2023-04-06T12:25:53;12.3;9.9;7.8
53698;PMS7003;68408;53.952;27.612;2023-04-06T12:31:18;12.2;10.4;8.5
53698;PMS7003;68408;53.952;27.612;2023-04-06T12:36:14;10.8;9;7
53698;PMS7003;68408;53.952;27.612;2023-04-06T12:40:59;12.8;10.6;8.7
53698;PMS7003;68408;53.952;27.612;2023-04-06T12:46:19;13.8;11.2;8.6
53698;PMS7003;68408;53.952;27.612;2023-04-06T12:51:00;10.8;9.3;7.1
53698;PMS7003;68408;53.952;27.612;2023-04-06T12:56:31;10.4;8.7;6.7
53698;PMS7003;68408;53.952;27.612;2023-04-06T13:01:13;13.8;10.8;8.5
53698;PMS7003;68408;53.952;27.612;2023-04-06T13:06:00;11.4;9.8;8
53698;PMS7003;68408;53.952;27.612;2023-04-06T13:11:25;12.8;10.6;8.3
53698;PMS7003;68408;53.952;27.612;2023-04-06T13:15:54;13.5;11.9;9.2
53698;PMS7003;68408;53.952;27.612;2023-04-06T13:21:32;11.7;10.8;8.9
53698;PMS7003;68408;53.952;27.612;2023-04-06T13:26:13;13.1;11.2;8.7
53698;PMS7003;68408;53.952;27.612;2023-04-06T13:31:00;11.6;9.6;8.1
53698;PMS7003;68408;53.952;27.612;2023-04-06T13:36:24;11.1;9.8;7.9
53698;PMS7003;68408;53.952;27.612;2023-04-06T13:41:02;10.5;9;6.9
53698;PMS7003;68408;53.952;27.612;2023-04-06T13:46:31;10.8;9.6;7.7
53698;PMS7003;68408;53.952;27.612;2023-04-06T13:51:07;7.9;7;5.6
53698;PMS7003;68408;53.952;27.612;2023-04-06T13:55:54;9.9;8.6;6.7
53698;PMS7003;68408;53.952;27.612;2023-04-06T14:01:21;10.5;9.1;7.4
53698;PMS7003;68408;53.952;27.612;2023-04-06T14:05:54;8.8;7.4;6.3
53698;PMS7003;68408;53.952;27.612;2023-04-06T14:11:33;10;8.1;6.5
53698;PMS7003;68408;53.952;27.612;2023-04-06T14:16:06;8.7;7;5.8
53698;PMS7003;68408;53.952;27.612;2023-04-06T14:20:54;9.8;8.1;6.9
53698;PMS7003;68408;53.952;27.612;2023-04-06T14:26:25;10.1;8.3;6.8
53698;PMS7003;68408;53.952;27.612;2023-04-06T14:30:54;10.7;8.5;7
53698;PMS7003;68408;53.952;27.612;2023-04-06T14:36:36;9.8;9.1;7.3
53698;PMS7003;68408;53.952;27.612;2023-04-06T14:40:53;10.2;8.6;7
53698;PMS7003;68408;53.952;27.612;2023-04-06T14:46:02;8.9;7.4;6.1
53698;PMS7003;68408;53.952;27.612;2023-04-06T14:51:26;9.2;7.4;6.2
53698;PMS7003;68408;53.952;27.612;2023-04-06T14:56:06;9.6;7.8;6.5
53698;PMS7003;68408;53.952;27.612;2023-04-06T15:01:22;10.6;8.9;7.1
53698;PMS7003;68408;53.952;27.612;2023-04-06T15:05:54;9.6;7.4;6.1
53698;PMS7003;68408;53.952;27.612;2023-04-06T15:10:58;10.6;7.7;6.2
53698;PMS7003;68408;53.952;27.612;2023-04-06T15:16:26;9.5;7.4;6.3
53698;PMS7003;68408;53.952;27.612;2023-04-06T15:21:08;10.8;9;7.4
53698;PMS7003;68408;53.952;27.612;2023-04-06T15:26:34;9.8;7.8;6
53698;PMS7003;68408;53.952;27.612;2023-04-06T15:31:14;9.7;8.2;7
53698;PMS7003;68408;53.952;27.612;2023-04-06T15:36:08;9.6;8;6.6
53698;PMS7003;68408;53.952;27.612;2023-04-06T15:41:24;8.8;7.3;6
53698;PMS7003;68408;53.952;27.612;2023-04-06T15:46:02;9;7.5;6.4
53698;PMS7003;68408;53.952;27.612;2023-04-06T15:51:36;10.3;8.5;7
53698;PMS7003;68408;53.952;27.612;2023-04-06T15:56:16;9.7;7.5;5.9
53698;PMS7003;68408;53.952;27.612;2023-04-06T16:00:54;9.9;8.7;7
53698;PMS7003;68408;53.952;27.612;2023-04-06T16:06:28;10.9;8.6;6.9
53698;PMS7003;68408;53.952;27.612;2023-04-06T16:10:54;11.5;9.8;7.7
53698;PMS7003;68408;53.952;27.612;2023-04-06T16:16:34;11.6;10.1;8.4
53698;PMS7003;68408;53.952;27.612;2023-04-06T16:21:20;12.7;10.8;8.6
53698;PMS7003;68408;53.952;27.612;2023-04-06T16:26:03;14.2;11.2;8.8
53698;PMS7003;68408;53.952;27.612;2023-04-06T16:31:36;10.6;8.7;7
53698;PMS7003;68408;53.952;27.612;2023-04-06T16:36:02;13.5;12;9.5
53698;PMS7003;68408;53.952;27.612;2023-04-06T16:41:36;12.7;10.5;8.4
53698;PMS7003;68408;53.952;27.612;2023-04-06T16:46:14;11.9;10.1;8
53698;PMS7003;68408;53.952;27.612;2023-04-06T16:50:54;12.4;10.6;8.4
53698;PMS7003;68408;53.952;27.612;2023-04-06T16:56:26;13.7;10.8;8.5
53698;PMS7003;68408;53.952;27.612;2023-04-06T17:00:54;11;9.6;8
53698;PMS7003;68408;53.952;27.612;2023-04-06T17:06:36;13.6;10.7;8.4
53698;PMS7003;68408;53.952;27.612;2023-04-06T17:11:16;13.9;11.6;8.8
53698;PMS7003;68408;53.952;27.612;2023-04-06T17:15:54;13.3;11.1;8.2
53698;PMS7003;68408;53.952;27.612;2023-04-06T17:21:12;13.8;11.8;9
53698;PMS7003;68408;53.952;27.612;2023-04-06T17:26:02;13.9;10.8;7.7
53698;PMS7003;68408;53.952;27.612;2023-04-06T17:31:36;14.9;11.7;9.3
53698;PMS7003;68408;53.952;27.612;2023-04-06T17:36:16;16.3;13.9;11
53698;PMS7003;68408;53.952;27.612;2023-04-06T17:40:54;12.3;10.1;7.4
53698;PMS7003;68408;53.952;27.612;2023-04-06T17:46:28;15.1;12;9.8
53698;PMS7003;68408;53.952;27.612;2023-04-06T17:51:08;13.6;11.8;8.8
53698;PMS7003;68408;53.952;27.612;2023-04-06T17:56:36;14.9;11.6;8.6
53698;PMS7003;68408;53.952;27.612;2023-04-06T18:01:08;14.1;11.6;9
53698;PMS7003;68408;53.952;27.612;2023-04-06T18:05:54;13.8;10.7;8.2
53698;PMS7003;68408;53.952;27.612;2023-04-06T18:11:28;13.4;10.7;7.9
53698;PMS7003;68408;53.952;27.612;2023-04-06T18:15:54;8;7.2;5.4
53698;PMS7003;68408;53.952;27.612;2023-04-06T18:21:38;11.8;9.8;7.8
53698;PMS7003;68408;53.952;27.612;2023-04-06T18:26:04;10;8;6.6
53698;PMS7003;68408;53.952;27.612;2023-04-06T18:30:54;10.4;8.1;6.4
53698;PMS7003;68408;53.952;27.612;2023-04-06T18:36:06;9.9;8;6.7
53698;PMS7003;68408;53.952;27.612;2023-04-06T18:41:04;10.2;7.4;5.9
53698;PMS7003;68408;53.952;27.612;2023-04-06T18:46:38;9.6;7.8;6.6
53698;PMS7003;68408;53.952;27.612;2023-04-06T18:51:04;6.3;4.9;4.3
53698;PMS7003;68408;53.952;27.612;2023-04-06T18:56:38;10.3;8.2;6.5
53698;PMS7003;68408;53.952;27.612;2023-04-06T19:00:54;9.3;7.4;5.9
53698;PMS7003;68408;53.952;27.612;2023-04-06T19:05:54;10.1;7.8;6.8
53698;PMS7003;68408;53.952;27.612;2023-04-06T19:11:22;8.4;7.6;6.1
53698;PMS7003;68408;53.952;27.612;2023-04-06T19:15:54;11;9.1;7.4
53698;PMS7003;68408;53.952;27.612;2023-04-06T19:20:54;10.9;9.2;7.1
53698;PMS7003;68408;53.952;27.612;2023-04-06T19:26:28;10.2;8;6.5
53698;PMS7003;68408;53.952;27.612;2023-04-06T19:30:54;8.3;6.9;5.7
53698;PMS7003;68408;53.952;27.612;2023-04-06T19:36:38;11.3;8.2;6.4
53698;PMS7003;68408;53.952;27.612;2023-04-06T19:41:04;9.9;7.6;6.2
53698;PMS7003;68408;53.952;27.612;2023-04-06T19:45:54;10.8;8.7;6.6
53698;PMS7003;68408;53.952;27.612;2023-04-06T19:51:29;10.7;8.6;6.4
53698;PMS7003;68408;53.952;27.612;2023-04-06T19:55:54;10.3;8.5;6.1
53698;PMS7003;68408;53.952;27.612;2023-04-06T20:01:36;10.6;8.6;7
53698;PMS7003;68408;53.952;27.612;2023-04-06T20:06:16;10.7;9;7
53698;PMS7003;68408;53.952;27.612;2023-04-06T20:11:06;9.1;7.3;5.6
53698;PMS7003;68408;53.952;27.612;2023-04-06T20:16:30;10.1;7.7;6.1
53698;PMS7003;68408;53.952;27.612;2023-04-06T20:21:04;9.6;7.9;6.2
53698;PMS7003;68408;53.952;27.612;2023-04-06T20:26:38;9.8;7.8;6.2
53698;PMS7003;68408;53.952;27.612;2023-04-06T20:31:18;9.2;7.9;6.4
53698;PMS7003;68408;53.952;27.612;2023-04-06T20:35:55;9.9;8.2;6.3
53698;PMS7003;68408;53.952;27.612;2023-04-06T20:41:38;10.7;8.3;6.6
53698;PMS7003;68408;53.952;27.612;2023-04-06T20:46:04;8.8;7.3;6
53698;PMS7003;68408;53.952;27.612;2023-04-06T20:51:22;9.5;7.6;5.9
53698;PMS7003;68408;53.952;27.612;2023-04-06T20:56:18;8.4;6.4;5.4
53698;PMS7003;68408;53.952;27.612;2023-04-06T21:01:22;8.1;5.9;4.4
53698;PMS7003;68408;53.952;27.612;2023-04-06T21:06:38;8.7;6.2;5.1
53698;PMS7003;68408;53.952;27.612;2023-04-06T21:11:04;8.5;6.4;5.2
53698;PMS7003;68408;53.952;27.612;2023-04-06T21:16:22;7.6;6.4;5
53698;PMS7003;68408;53.952;27.612;2023-04-06T21:21:08;7.4;6.7;5.1
53698;PMS7003;68408;53.952;27.612;2023-04-06T21:26:22;6.9;5.5;4.4
53698;PMS7003;68408;53.952;27.612;2023-04-06T21:31:38;6.4;5.4;4.5
53698;PMS7003;68408;53.952;27.612;2023-04-06T21:35:54;8.2;6.5;5.4
53698;PMS7003;68408;53.952;27.612;2023-04-06T21:41:22;8.1;6.6;5.1
53698;PMS7003;68408;53.952;27.612;2023-04-06T21:46:16;7.4;6.1;5.1
53698;PMS7003;68408;53.952;27.612;2023-04-06T21:51:22;4.9;3.5;2.6
53698;PMS7003;68408;53.952;27.612;2023-04-06T21:56:36;7.3;5.8;4.6
53698;PMS7003;68408;53.952;27.612;2023-04-06T22:01:08;7;5.9;4.5
53698;PMS7003;68408;53.952;27.612;2023-04-06T22:06:22;7.9;5.2;4.3
53698;PMS7003;68408;53.952;27.612;2023-04-06T22:11:18;5.3;4.4;3.3
53698;PMS7003;68408;53.952;27.612;2023-04-06T22:16:22;6.2;5.6;4.4
53698;PMS7003;68408;53.952;27.612;2023-04-06T22:21:38;7.5;5.1;4.1
53698;PMS7003;68408;53.952;27.612;2023-04-06T22:26:04;6.3;5;4.1
53698;PMS7003;68408;53.952;27.612;2023-04-06T22:31:22;7.4;5.6;4.6
53698;PMS7003;68408;53.952;27.612;2023-04-06T22:36:16;6.6;5.4;4.4
53698;PMS7003;68408;53.952;27.612;2023-04-06T22:41:22;6.2;4.9;4.1
53698;PMS7003;68408;53.952;27.612;2023-04-06T22:46:38;7.7;6.4;5.1
53698;PMS7003;68408;53.952;27.612;2023-04-06T22:50:54;7.5;5.5;4.3
53698;PMS7003;68408;53.952;27.612;2023-04-06T22:56:16;8.7;6.3;4.9
53698;PMS7003;68408;53.952;27.612;2023-04-06T23:01:30;7.9;6.5;5.1
53698;PMS7003;68408;53.952;27.612;2023-04-06T23:06:22;9.4;6.2;4.8
53698;PMS7003;68408;53.952;27.612;2023-04-06T23:11:38;8;6.2;4.8
53698;PMS7003;68408;53.952;27.612;2023-04-06T23:16:00;8.4;6.2;5
53698;PMS7003;68408;53.952;27.612;2023-04-06T23:21:22;7.1;6.1;4.8
53698;PMS7003;68408;53.952;27.612;2023-04-06T23:25:54;7.2;6.1;4.9
53698;PMS7003;68408;53.952;27.612;2023-04-06T23:31:38;8.5;6.3;5.1
53698;PMS7003;68408;53.952;27.612;2023-04-06T23:36:36;7.3;6;4.5
53698;PMS7003;68408;53.952;27.612;2023-04-06T23:41:12;5.5;4.8;3.9
53698;PMS7003;68408;53.952;27.612;2023-04-06T23:46:22;7.3;5.9;4.6
53698;PMS7003;68408;53.952;27.612;2023-04-06T23:50:54;8.5;6.3;5
53698;PMS7003;68408;53.952;27.612;2023-04-06T23:56:22;7.8;5.8;4.5
